Time;durP1;ratioP1;P1;durP2;ratioP2;P2;SDS_P1;SDS_P2;PMS_P1;PMS_P2;Temp;Humidity;BMP_temperature;BMP_pressure;BME280_temperature;BME280_humidity;BME280_pressure;Samples;Min_cycle;Max_cycle;Signal;HPM_P1;HPM_P2
2023/07/14 00:00:17;;;;;;;4.20;1.20;;;;;;;;;;5063346;28;20017;-62
2023/07/14 00:02:44;;;;;;;4.47;1.45;;;;;;;;;;5061027;28;20025;-61
2023/07/14 00:05:13;;;;;;;4.68;1.30;;;;;;;;;;5069477;28;20028;-60
2023/07/14 00:07:38;;;;;;;4.35;1.42;;;;;;;;;;5068744;28;20465;-60
2023/07/14 00:10:11;;;;;;;3.72;1.23;;;;;;;;;;5066867;28;20100;-60
2023/07/14 00:12:37;;;;;;;4.70;1.50;;;;;;;;;;5054631;28;20055;-60
2023/07/14 00:15:02;;;;;;;3.73;1.10;;;;;;;;;;5068892;28;20013;-61
2023/07/14 00:17:28;;;;;;;4.73;1.40;;;;;;;;;;5055679;28;20112;-60
2023/07/14 00:19:53;;;;;;;4.93;1.33;;;;;;;;;;5069006;28;20165;-62
2023/07/14 00:22:18;;;;;;;3.80;1.38;;;;;;;;;;5069268;28;20032;-59
2023/07/14 00:24:44;;;;;;;7.28;1.50;;;;;;;;;;5068750;28;20025;-61
2023/07/14 00:27:16;;;;;;;3.63;1.30;;;;;;;;;;5069640;28;20454;-60
2023/07/14 00:29:42;;;;;;;3.47;1.25;;;;;;;;;;5069731;28;20104;-61
2023/07/14 00:32:19;;;;;;;6.20;1.70;;;;;;;;;;5069130;28;20110;-62
2023/07/14 00:34:44;;;;;;;5.20;1.65;;;;;;;;;;5065419;28;20048;-61
2023/07/14 00:37:10;;;;;;;4.47;1.42;;;;;;;;;;5069843;28;20052;-62
2023/07/14 00:39:35;;;;;;;4.28;1.40;;;;;;;;;;5069568;28;20031;-62
2023/07/14 00:42:03;;;;;;;5.27;1.20;;;;;;;;;;5069751;28;20016;-63
2023/07/14 00:44:29;;;;;;;4.95;1.70;;;;;;;;;;5059602;28;20400;-62
2023/07/14 00:46:54;;;;;;;4.15;1.60;;;;;;;;;;5070159;28;20024;-62
2023/07/14 00:49:24;;;;;;;5.00;1.40;;;;;;;;;;5069363;28;20436;-61
2023/07/14 00:51:50;;;;;;;4.15;1.30;;;;;;;;;;5069233;28;20024;-61
2023/07/14 00:54:26;;;;;;;6.03;1.52;;;;;;;;;;5058042;28;20036;-60
2023/07/14 00:56:52;;;;;;;4.53;1.58;;;;;;;;;;5063729;28;20028;-62
2023/07/14 00:59:17;;;;;;;3.92;1.50;;;;;;;;;;5052652;28;20481;-61
2023/07/14 01:02:01;;;;;;;6.78;1.60;;;;;;;;;;5068025;28;20511;-61
2023/07/14 01:04:26;;;;;;;6.03;1.75;;;;;;;;;;5060594;28;20019;-62
2023/07/14 01:06:51;;;;;;;4.40;1.67;;;;;;;;;;5060598;28;20021;-59
2023/07/14 01:09:16;;;;;;;5.35;1.48;;;;;;;;;;5065506;28;20388;-61
2023/07/14 01:11:44;;;;;;;4.80;1.53;;;;;;;;;;5065905;28;20038;-60
2023/07/14 01:14:11;;;;;;;4.75;1.60;;;;;;;;;;5057012;28;20040;-58
2023/07/14 01:16:37;;;;;;;6.25;1.85;;;;;;;;;;5061284;28;20485;-61
2023/07/14 01:19:07;;;;;;;6.00;1.60;;;;;;;;;;5063479;28;20050;-58
2023/07/14 01:21:33;;;;;;;5.78;1.73;;;;;;;;;;5056350;28;20017;-60
2023/07/14 01:24:01;;;;;;;5.07;1.65;;;;;;;;;;5064007;28;20021;-60
2023/07/14 01:26:45;;;;;;;4.13;1.50;;;;;;;;;;5068076;28;20024;-60
2023/07/14 01:29:11;;;;;;;6.63;2.00;;;;;;;;;;5070713;28;20418;-61
2023/07/14 01:31:36;;;;;;;4.57;1.70;;;;;;;;;;5070196;28;20021;-62
2023/07/14 01:34:02;;;;;;;4.20;1.50;;;;;;;;;;5069603;28;20031;-61
2023/07/14 01:36:27;;;;;;;4.45;1.50;;;;;;;;;;5070445;28;20442;-61
2023/07/14 01:38:52;;;;;;;3.93;1.40;;;;;;;;;;5070228;28;20028;-61
2023/07/14 01:41:18;;;;;;;5.35;1.63;;;;;;;;;;5070958;28;20053;-59
2023/07/14 01:43:43;;;;;;;3.63;1.43;;;;;;;;;;5064399;28;20059;-58
2023/07/14 01:46:13;;;;;;;4.38;1.48;;;;;;;;;;5064216;28;20514;-61
2023/07/14 01:48:41;;;;;;;4.25;1.50;;;;;;;;;;5064644;28;20027;-60
2023/07/14 01:51:09;;;;;;;4.88;1.65;;;;;;;;;;5061221;28;20017;-61
2023/07/14 01:53:36;;;;;;;4.82;1.33;;;;;;;;;;5063697;28;20111;-61
2023/07/14 01:56:04;;;;;;;5.40;1.60;;;;;;;;;;5070697;28;20024;-61
2023/07/14 01:58:32;;;;;;;4.72;1.45;;;;;;;;;;5073467;28;20518;-61
2023/07/14 02:00:58;;;;;;;6.60;1.70;;;;;;;;;;5073492;28;20103;-60
2023/07/14 02:03:29;;;;;;;5.35;1.55;;;;;;;;;;5069976;28;20615;-61
2023/07/14 02:05:54;;;;;;;4.60;1.60;;;;;;;;;;5071911;28;20024;-60
2023/07/14 02:08:22;;;;;;;3.97;1.50;;;;;;;;;;5075337;28;20392;-61
2023/07/14 02:10:47;;;;;;;4.15;1.55;;;;;;;;;;5063030;28;20029;-59
2023/07/14 02:13:13;;;;;;;4.03;1.40;;;;;;;;;;5065033;28;20031;-61
2023/07/14 02:15:38;;;;;;;4.43;1.50;;;;;;;;;;5069311;28;20025;-59
2023/07/14 02:18:03;;;;;;;5.87;1.77;;;;;;;;;;5071256;28;20012;-60
2023/07/14 02:20:32;;;;;;;4.97;1.83;;;;;;;;;;5070659;28;20021;-61
2023/07/14 02:22:58;;;;;;;4.47;1.58;;;;;;;;;;5068845;28;20012;-61
2023/07/14 02:25:26;;;;;;;4.78;1.50;;;;;;;;;;5067532;28;20039;-60
2023/07/14 02:27:51;;;;;;;4.72;1.48;;;;;;;;;;5071448;28;20024;-60
2023/07/14 02:30:20;;;;;;;4.47;1.20;;;;;;;;;;5070097;28;20093;-61
2023/07/14 02:32:49;;;;;;;6.00;1.50;;;;;;;;;;5071779;28;20112;-60
2023/07/14 02:35:18;;;;;;;4.95;1.42;;;;;;;;;;5071201;28;20016;-60
2023/07/14 02:38:05;;;;;;;4.78;1.40;;;;;;;;;;5069929;28;20318;-61
2023/07/14 02:40:43;;;;;;;4.78;1.70;;;;;;;;;;5071078;28;20465;-60
2023/07/14 02:43:09;;;;;;;4.80;1.60;;;;;;;;;;5064574;28;20021;-60
2023/07/14 02:45:35;;;;;;;;;;;;;;;;;;5069910;28;20024;-60
2023/07/14 02:48:01;;;;;;;4.07;1.55;;;;;;;;;;5070086;28;19912;-60
2023/07/14 02:50:26;;;;;;;5.10;1.60;;;;;;;;;;5071157;28;20134;-59
2023/07/14 02:52:52;;;;;;;5.90;1.60;;;;;;;;;;5061027;28;20120;-60
2023/07/14 02:55:17;;;;;;;4.47;1.73;;;;;;;;;;5065699;28;20021;-59
2023/07/14 02:57:42;;;;;;;5.43;1.60;;;;;;;;;;5058290;28;20036;-61
2023/07/14 03:00:07;;;;;;;5.88;1.90;;;;;;;;;;5061570;28;20025;-61
2023/07/14 03:02:33;;;;;;;5.45;1.90;;;;;;;;;;5065031;28;20020;-59
2023/07/14 03:04:58;;;;;;;5.30;1.52;;;;;;;;;;5064251;28;20028;-60
2023/07/14 03:07:23;;;;;;;5.40;2.00;;;;;;;;;;5058031;28;20554;-61
2023/07/14 03:09:48;;;;;;;5.35;1.73;;;;;;;;;;5067849;28;20028;-59
2023/07/14 03:12:14;;;;;;;5.43;1.80;;;;;;;;;;5070464;28;20031;-59
2023/07/14 03:14:39;;;;;;;6.38;1.92;;;;;;;;;;5068149;28;20016;-57
2023/07/14 03:17:04;;;;;;;5.80;1.80;;;;;;;;;;5070467;28;20072;-58
2023/07/14 03:19:29;;;;;;;5.03;1.93;;;;;;;;;;5069455;28;20414;-59
2023/07/14 03:21:54;;;;;;;5.17;1.87;;;;;;;;;;5070171;28;20060;-59
2023/07/14 03:24:19;;;;;;;4.68;1.63;;;;;;;;;;5069482;28;20025;-58
2023/07/14 03:26:45;;;;;;;5.07;1.70;;;;;;;;;;5070580;28;20028;-59
2023/07/14 03:29:10;;;;;;;5.10;1.70;;;;;;;;;;5068248;28;20419;-59
2023/07/14 03:31:35;;;;;;;5.50;1.50;;;;;;;;;;5062734;28;20051;-59
2023/07/14 03:34:00;;;;;;;4.15;1.58;;;;;;;;;;5064929;28;20017;-57
2023/07/14 03:36:25;;;;;;;6.47;1.93;;;;;;;;;;5061962;28;20052;-56
2023/07/14 03:39:10;;;;;;;4.97;1.90;;;;;;;;;;5062863;28;20078;-57
2023/07/14 03:41:35;;;;;;;4.93;1.65;;;;;;;;;;5068566;28;20119;-59
2023/07/14 03:44:01;;;;;;;5.70;1.70;;;;;;;;;;5070030;28;20096;-59
2023/07/14 03:46:26;;;;;;;4.25;1.48;;;;;;;;;;5068041;28;20032;-59
2023/07/14 03:48:51;;;;;;;5.67;1.97;;;;;;;;;;5069331;28;20029;-59
2023/07/14 03:51:16;;;;;;;5.37;1.70;;;;;;;;;;5067174;28;20013;-58
2023/07/14 03:53:42;;;;;;;4.30;1.58;;;;;;;;;;5068027;28;20549;-58
2023/07/14 03:56:07;;;;;;;4.77;1.83;;;;;;;;;;5068976;28;20033;-58
2023/07/14 03:58:32;;;;;;;7.00;1.95;;;;;;;;;;5065266;28;20423;-58
2023/07/14 04:01:00;;;;;;;6.28;2.00;;;;;;;;;;5056336;28;20029;-58
2023/07/14 04:03:25;;;;;;;6.85;2.40;;;;;;;;;;5056955;28;20026;-59
2023/07/14 04:05:50;;;;;;;5.83;2.10;;;;;;;;;;5060782;28;20535;-57
2023/07/14 04:08:15;;;;;;;4.93;1.80;;;;;;;;;;5059225;28;20036;-59
2023/07/14 04:10:40;;;;;;;5.20;1.80;;;;;;;;;;5067136;28;20568;-58
2023/07/14 04:13:06;;;;;;;5.17;1.60;;;;;;;;;;5067236;28;20050;-58
2023/07/14 04:15:31;;;;;;;5.73;1.87;;;;;;;;;;5065150;28;20424;-57
2023/07/14 04:17:56;;;;;;;4.47;1.80;;;;;;;;;;5067209;28;20031;-59
2023/07/14 04:20:22;;;;;;;4.20;1.67;;;;;;;;;;5069852;28;20579;-59
2023/07/14 04:22:47;;;;;;;5.05;1.80;;;;;;;;;;5068877;28;20025;-58
2023/07/14 04:25:12;;;;;;;5.10;1.60;;;;;;;;;;5068086;28;20032;-59
2023/07/14 04:27:37;;;;;;;5.23;1.60;;;;;;;;;;5069730;28;20033;-59
2023/07/14 04:30:04;;;;;;;5.78;2.03;;;;;;;;;;5075176;28;20017;-58
2023/07/14 04:32:29;;;;;;;5.05;1.70;;;;;;;;;;5073807;28;20040;-59
2023/07/14 04:34:55;;;;;;;4.40;1.50;;;;;;;;;;5070921;28;20017;-60
2023/07/14 04:37:20;;;;;;;5.18;1.70;;;;;;;;;;5066768;28;20032;-58
2023/07/14 04:39:45;;;;;;;5.00;1.73;;;;;;;;;;5069447;28;20662;-58
2023/07/14 04:42:11;;;;;;;6.80;1.60;;;;;;;;;;5069390;28;20021;-57
2023/07/14 04:44:37;;;;;;;5.03;2.05;;;;;;;;;;5067944;28;20427;-60
2023/07/14 04:47:02;;;;;;;4.72;1.77;;;;;;;;;;5063114;28;20017;-59
2023/07/14 04:49:28;;;;;;;4.70;1.60;;;;;;;;;;5060640;28;20028;-57
2023/07/14 04:51:53;;;;;;;5.93;1.88;;;;;;;;;;5065969;28;20028;-58
2023/07/14 04:54:18;;;;;;;3.75;1.30;;;;;;;;;;5064908;28;20102;-59
2023/07/14 04:56:44;;;;;;;5.45;1.98;;;;;;;;;;5066790;28;20385;-57
2023/07/14 04:59:10;;;;;;;5.63;1.48;;;;;;;;;;5062021;28;20028;-57
2023/07/14 05:01:35;;;;;;;;;;;;;;;;;;5062648;28;20036;-58
2023/07/14 05:04:00;;;;;;;4.95;1.92;;;;;;;;;;5064624;28;19908;-59
2023/07/14 05:06:25;;;;;;;5.13;1.70;;;;;;;;;;5073196;28;20017;-59
2023/07/14 05:08:51;;;;;;;5.30;1.73;;;;;;;;;;5062738;28;20748;-59
2023/07/14 05:11:16;;;;;;;3.70;1.40;;;;;;;;;;5073357;28;20029;-58
2023/07/14 05:13:41;;;;;;;7.60;2.50;;;;;;;;;;5058961;28;20029;-59
2023/07/14 05:16:06;;;;;;;5.15;1.58;;;;;;;;;;5062436;28;20840;-59
2023/07/14 05:18:32;;;;;;;6.70;1.67;;;;;;;;;;5062962;28;20036;-59
2023/07/14 05:20:58;;;;;;;5.80;1.73;;;;;;;;;;5070014;28;20395;-58
2023/07/14 05:23:26;;;;;;;5.40;1.90;;;;;;;;;;5069835;28;20043;-57
2023/07/14 05:25:51;;;;;;;5.18;1.80;;;;;;;;;;5066575;28;20445;-59
2023/07/14 05:28:16;;;;;;;4.78;1.80;;;;;;;;;;5066675;28;20094;-59
2023/07/14 05:30:41;;;;;;;5.47;1.83;;;;;;;;;;5069347;28;20033;-59
2023/07/14 05:33:09;;;;;;;4.40;1.70;;;;;;;;;;5064163;28;20054;-59
2023/07/14 05:35:34;;;;;;;5.25;1.65;;;;;;;;;;5069013;28;20020;-57
2023/07/14 05:37:59;;;;;;;4.13;1.50;;;;;;;;;;5071439;28;20050;-59
2023/07/14 05:40:25;;;;;;;4.60;1.85;;;;;;;;;;5066549;28;20476;-58
2023/07/14 05:42:50;;;;;;;5.90;1.83;;;;;;;;;;5056789;28;20071;-59
2023/07/14 05:45:15;;;;;;;6.87;2.10;;;;;;;;;;5069658;28;20020;-58
2023/07/14 05:47:43;;;;;;;5.50;1.40;;;;;;;;;;5060163;28;20044;-58
2023/07/14 05:50:09;;;;;;;3.80;1.42;;;;;;;;;;5059549;28;20051;-58
2023/07/14 05:52:34;;;;;;;6.00;1.75;;;;;;;;;;5057151;28;20063;-57
2023/07/14 05:54:59;;;;;;;4.93;1.63;;;;;;;;;;5063373;28;20036;-57
2023/07/14 05:57:25;;;;;;;6.78;2.38;;;;;;;;;;5063463;28;20898;-58
2023/07/14 05:59:51;;;;;;;7.03;1.80;;;;;;;;;;5066751;28;20016;-57
2023/07/14 06:02:16;;;;;;;8.88;2.03;;;;;;;;;;5058342;28;20028;-59
2023/07/14 06:04:41;;;;;;;4.68;1.80;;;;;;;;;;5060242;28;20074;-59
2023/07/14 06:07:08;;;;;;;4.75;1.42;;;;;;;;;;5066086;28;20048;-57
2023/07/14 06:09:36;;;;;;;5.20;1.50;;;;;;;;;;5067571;28;20021;-58
2023/07/14 06:12:05;;;;;;;7.03;1.73;;;;;;;;;;5061651;28;20012;-59
2023/07/14 06:14:34;;;;;;;6.63;1.60;;;;;;;;;;5067011;28;20032;-58
2023/07/14 06:16:59;;;;;;;5.18;1.83;;;;;;;;;;5067323;28;20028;-59
2023/07/14 06:19:25;;;;;;;5.65;1.70;;;;;;;;;;5065736;28;20066;-59
2023/07/14 06:21:50;;;;;;;4.90;1.60;;;;;;;;;;5068801;28;20684;-57
2023/07/14 06:24:15;;;;;;;4.53;1.73;;;;;;;;;;5071375;28;20028;-58
2023/07/14 06:26:40;;;;;;;5.90;1.60;;;;;;;;;;5069558;28;20389;-58
2023/07/14 06:29:05;;;;;;;5.10;1.77;;;;;;;;;;5067881;28;20024;-58
2023/07/14 06:31:31;;;;;;;5.53;1.90;;;;;;;;;;5063096;28;20444;-57
2023/07/14 06:33:56;;;;;;;5.55;1.88;;;;;;;;;;5070930;28;20077;-58
2023/07/14 06:36:21;;;;;;;4.70;1.63;;;;;;;;;;5071008;28;20426;-57
2023/07/14 06:38:47;;;;;;;4.95;1.60;;;;;;;;;;5070042;28;20024;-59
2023/07/14 06:41:12;;;;;;;7.47;1.83;;;;;;;;;;5067495;28;20490;-60
2023/07/14 06:43:37;;;;;;;6.00;1.60;;;;;;;;;;5069343;28;20100;-59
2023/07/14 06:46:02;;;;;;;5.17;1.53;;;;;;;;;;5068436;28;20036;-58
2023/07/14 06:48:28;;;;;;;5.55;1.75;;;;;;;;;;5069714;28;20025;-59
2023/07/14 06:50:53;;;;;;;4.65;1.85;;;;;;;;;;5069729;28;20416;-59
2023/07/14 06:53:18;;;;;;;4.95;1.70;;;;;;;;;;5066470;28;20032;-58
2023/07/14 06:55:44;;;;;;;6.33;1.70;;;;;;;;;;5068439;28;20050;-57
2023/07/14 06:58:10;;;;;;;5.40;1.55;;;;;;;;;;5067092;28;20504;-58
2023/07/14 07:00:35;;;;;;;5.03;1.60;;;;;;;;;;5069245;28;20059;-59
2023/07/14 07:03:01;;;;;;;6.63;1.53;;;;;;;;;;5057116;28;20044;-59
2023/07/14 07:05:26;;;;;;;5.45;1.50;;;;;;;;;;5070289;28;20024;-59
2023/07/14 07:07:53;;;;;;;4.53;1.50;;;;;;;;;;5066069;28;20028;-57
2023/07/14 07:10:18;;;;;;;4.05;1.50;;;;;;;;;;5071865;28;20032;-58
2023/07/14 07:12:44;;;;;;;4.70;1.87;;;;;;;;;;5068992;28;20404;-61
2023/07/14 07:15:09;;;;;;;4.28;1.50;;;;;;;;;;5072060;28;20472;-58
2023/07/14 07:17:34;;;;;;;4.72;1.60;;;;;;;;;;5069304;28;20033;-58
2023/07/14 07:19:59;;;;;;;5.43;1.47;;;;;;;;;;5071250;28;20021;-58
2023/07/14 07:22:24;;;;;;;3.17;1.20;;;;;;;;;;5070611;28;20027;-58
2023/07/14 07:24:50;;;;;;;5.28;1.50;;;;;;;;;;5071070;28;20055;-60
2023/07/14 07:27:15;;;;;;;5.63;1.40;;;;;;;;;;5063528;28;20029;-58
2023/07/14 07:29:42;;;;;;;4.30;1.40;;;;;;;;;;5071611;28;20016;-59
2023/07/14 07:32:07;;;;;;;3.75;1.60;;;;;;;;;;5070877;28;20028;-59
2023/07/14 07:34:32;;;;;;;4.13;1.30;;;;;;;;;;5068628;28;20108;-59
2023/07/14 07:36:58;;;;;;;5.18;1.40;;;;;;;;;;5064691;28;20431;-59
2023/07/14 07:39:23;;;;;;;4.80;1.57;;;;;;;;;;5065172;28;20055;-59
2023/07/14 07:41:48;;;;;;;4.25;1.27;;;;;;;;;;5070146;28;20044;-59
2023/07/14 07:44:13;;;;;;;4.47;1.40;;;;;;;;;;5070464;28;20029;-59
2023/07/14 07:46:38;;;;;;;4.03;1.37;;;;;;;;;;5069259;28;20464;-58
2023/07/14 07:49:03;;;;;;;3.83;1.50;;;;;;;;;;5070622;28;20016;-59
2023/07/14 07:51:29;;;;;;;4.83;1.70;;;;;;;;;;5068242;28;20031;-59
2023/07/14 07:53:54;;;;;;;4.03;1.27;;;;;;;;;;5069032;28;20032;-59
2023/07/14 07:56:20;;;;;;;3.55;1.30;;;;;;;;;;5069487;28;20474;-59
2023/07/14 07:58:45;;;;;;;4.03;1.30;;;;;;;;;;5064253;28;20024;-60
2023/07/14 08:01:15;;;;;;;3.40;1.40;;;;;;;;;;5059078;28;20365;-58
2023/07/14 08:03:41;;;;;;;3.28;1.20;;;;;;;;;;5063045;28;20487;-58
2023/07/14 08:06:06;;;;;;;4.33;1.40;;;;;;;;;;5064892;28;20023;-60
2023/07/14 08:08:31;;;;;;;3.67;1.37;;;;;;;;;;5070736;28;20020;-58
2023/07/14 08:10:57;;;;;;;3.50;1.27;;;;;;;;;;5065207;28;20047;-58
2023/07/14 08:13:25;;;;;;;4.53;1.15;;;;;;;;;;5069940;28;20044;-60
2023/07/14 08:15:50;;;;;;;3.67;1.20;;;;;;;;;;5073083;28;20012;-59
2023/07/14 08:18:15;;;;;;;3.80;1.30;;;;;;;;;;5076964;28;20035;-60
2023/07/14 08:20:41;;;;;;;3.50;1.30;;;;;;;;;;5073837;28;20091;-61
2023/07/14 08:23:08;;;;;;;3.33;1.20;;;;;;;;;;5065834;28;20013;-60
2023/07/14 08:25:33;;;;;;;3.47;1.23;;;;;;;;;;5070480;28;20021;-57
2023/07/14 08:27:59;;;;;;;3.67;1.20;;;;;;;;;;5070239;28;20020;-59
2023/07/14 08:30:24;;;;;;;3.53;1.20;;;;;;;;;;5069852;28;20101;-60
2023/07/14 08:32:49;;;;;;;4.33;1.40;;;;;;;;;;5075663;28;20134;-60
2023/07/14 08:35:18;;;;;;;3.90;1.23;;;;;;;;;;5061555;28;20267;-60
2023/07/14 08:37:43;;;;;;;4.63;1.25;;;;;;;;;;5072163;28;20508;-59
2023/07/14 08:40:13;;;;;;;4.57;1.30;;;;;;;;;;5065778;28;20135;-59
2023/07/14 08:42:58;;;;;;;4.47;1.27;;;;;;;;;;5067604;28;20032;-59
2023/07/14 08:45:32;;;;;;;3.83;1.20;;;;;;;;;;5071464;28;20032;-59
2023/07/14 08:48:16;;;;;;;4.20;1.38;;;;;;;;;;5074244;28;20560;-59
2023/07/14 08:50:45;;;;;;;2.78;0.98;;;;;;;;;;5073598;28;20114;-59
2023/07/14 08:53:23;;;;;;;3.63;1.15;;;;;;;;;;5065984;28;20033;-60
2023/07/14 08:55:48;;;;;;;3.60;1.25;;;;;;;;;;5073164;28;20029;-60
2023/07/14 08:58:21;;;;;;;4.43;1.20;;;;;;;;;;5073521;28;20062;-61
2023/07/14 09:00:49;;;;;;;2.92;1.10;;;;;;;;;;5072522;28;20404;-57
2023/07/14 09:03:16;;;;;;;4.75;1.00;;;;;;;;;;5069634;28;20422;-58
2023/07/14 09:05:46;;;;;;;4.13;1.10;;;;;;;;;;5064004;28;20074;-59
2023/07/14 09:08:12;;;;;;;4.85;1.20;;;;;;;;;;5066399;28;20136;-59
2023/07/14 09:10:37;;;;;;;3.92;1.30;;;;;;;;;;5074546;28;20180;-59
2023/07/14 09:13:15;;;;;;;3.42;1.10;;;;;;;;;;5074923;28;20013;-59
2023/07/14 09:15:40;;;;;;;3.40;1.08;;;;;;;;;;5073271;28;20111;-58
2023/07/14 09:18:11;;;;;;;4.63;1.30;;;;;;;;;;5074551;28;20146;-59
2023/07/14 09:20:55;;;;;;;4.35;1.20;;;;;;;;;;5072889;28;20537;-59
2023/07/14 09:23:28;;;;;;;3.75;1.02;;;;;;;;;;5072370;28;20029;-58
2023/07/14 09:25:56;;;;;;;3.63;1.30;;;;;;;;;;5069978;28;20453;-59
2023/07/14 09:28:42;;;;;;;3.67;1.20;;;;;;;;;;5063447;28;20024;-59
2023/07/14 09:31:25;;;;;;;4.18;1.30;;;;;;;;;;5056835;28;20036;-60
2023/07/14 09:33:55;;;;;;;4.35;1.15;;;;;;;;;;5071121;28;20052;-60
2023/07/14 09:36:21;;;;;;;4.57;1.38;;;;;;;;;;5069538;28;20028;-60
2023/07/14 09:38:48;;;;;;;4.43;1.40;;;;;;;;;;5072186;28;20074;-60
2023/07/14 09:41:14;;;;;;;4.20;1.30;;;;;;;;;;5072694;28;20049;-61
2023/07/14 09:43:40;;;;;;;4.68;1.50;;;;;;;;;;5071857;28;20518;-60
2023/07/14 09:46:08;;;;;;;3.87;1.30;;;;;;;;;;5071299;28;20017;-61
2023/07/14 09:48:34;;;;;;;3.78;1.38;;;;;;;;;;5073052;28;20099;-58
2023/07/14 09:51:02;;;;;;;4.15;1.40;;;;;;;;;;5058215;28;20096;-60
2023/07/14 09:53:28;;;;;;;5.47;1.67;;;;;;;;;;5068705;28;20031;-60
2023/07/14 09:55:58;;;;;;;3.72;1.25;;;;;;;;;;5072094;28;20405;-58
2023/07/14 09:58:24;;;;;;;4.90;1.40;;;;;;;;;;5071674;28;20013;-58
2023/07/14 10:00:50;;;;;;;6.38;1.30;;;;;;;;;;5071757;28;20032;-60
2023/07/14 10:03:17;;;;;;;6.15;1.40;;;;;;;;;;5070984;28;20035;-60
2023/07/14 10:05:52;;;;;;;3.40;1.20;;;;;;;;;;5064954;28;20019;-58
2023/07/14 10:08:27;;;;;;;3.85;1.60;;;;;;;;;;5064649;28;20100;-61
2023/07/14 10:10:53;;;;;;;3.95;1.20;;;;;;;;;;5070361;28;20025;-60
2023/07/14 10:13:26;;;;;;;5.55;1.70;;;;;;;;;;5072173;28;20493;-60
2023/07/14 10:15:57;;;;;;;4.47;1.33;;;;;;;;;;5072095;28;20020;-59
2023/07/14 10:18:23;;;;;;;3.92;1.30;;;;;;;;;;5069871;28;20024;-61
2023/07/14 10:20:57;;;;;;;4.55;1.45;;;;;;;;;;5069795;28;20095;-60
2023/07/14 10:23:24;;;;;;;4.10;1.45;;;;;;;;;;5066123;28;20020;-59
2023/07/14 10:25:51;;;;;;;5.88;1.42;;;;;;;;;;5070612;28;20028;-59
2023/07/14 10:28:20;;;;;;;4.22;1.35;;;;;;;;;;5070592;28;20028;-59
2023/07/14 10:31:04;;;;;;;3.28;1.20;;;;;;;;;;5071300;28;20472;-59
2023/07/14 10:33:38;;;;;;;3.92;1.35;;;;;;;;;;5069722;28;20250;-58
2023/07/14 10:36:07;;;;;;;3.97;1.40;;;;;;;;;;5067899;28;20450;-59
2023/07/14 10:38:35;;;;;;;4.45;1.52;;;;;;;;;;5070082;28;20028;-58
2023/07/14 10:41:06;;;;;;;4.25;1.20;;;;;;;;;;5070936;28;20020;-59
2023/07/14 10:43:34;;;;;;;3.80;1.40;;;;;;;;;;5060781;28;20082;-59
2023/07/14 10:46:28;;;;;;;5.00;1.50;;;;;;;;;;5071351;28;20013;-61
2023/07/14 10:49:20;;;;;;;4.43;1.30;;;;;;;;;;5069998;28;20163;-60
2023/07/14 10:51:51;;;;;;;3.85;1.50;;;;;;;;;;5068141;28;20036;-60
2023/07/14 10:54:18;;;;;;;3.42;1.33;;;;;;;;;;5067761;28;20028;-58
2023/07/14 10:56:46;;;;;;;3.90;1.30;;;;;;;;;;5071105;28;20396;-58
2023/07/14 10:59:20;;;;;;;4.90;1.50;;;;;;;;;;5068240;28;20023;-59
2023/07/14 11:02:11;;;;;;;4.07;1.30;;;;;;;;;;5067552;28;20020;-61
2023/07/14 11:04:39;;;;;;;3.78;1.33;;;;;;;;;;5070060;28;20064;-59
2023/07/14 11:07:05;;;;;;;4.38;1.20;;;;;;;;;;5069188;28;20029;-58
2023/07/14 11:09:31;;;;;;;4.60;1.40;;;;;;;;;;5059534;28;20023;-60
2023/07/14 11:11:56;;;;;;;;;;;;;;;;;;5078565;28;20021;-58
2023/07/14 11:14:40;;;;;;;3.97;1.47;;;;;;;;;;5065610;28;20283;-60
2023/07/14 11:17:20;;;;;;;5.32;1.50;;;;;;;;;;5071159;28;20469;-60
2023/07/14 11:20:01;;;;;;;4.13;1.40;;;;;;;;;;5071901;28;20071;-59
2023/07/14 11:22:26;;;;;;;3.90;1.40;;;;;;;;;;5069098;28;20027;-61
2023/07/14 11:24:51;;;;;;;;;;;;;;;;;;5073929;28;20028;-59
2023/07/14 11:27:35;;;;;;;4.22;1.20;;;;;;;;;;5069349;28;20003;-60
2023/07/14 11:30:03;;;;;;;6.20;1.35;;;;;;;;;;5062582;28;20030;-59
2023/07/14 11:32:36;;;;;;;4.50;1.40;;;;;;;;;;5067645;28;20557;-60
2023/07/14 11:35:19;;;;;;;4.78;1.58;;;;;;;;;;5070541;28;20031;-58
2023/07/14 11:38:08;;;;;;;5.82;1.63;;;;;;;;;;5061819;28;20035;-58
2023/07/14 11:40:36;;;;;;;4.70;1.55;;;;;;;;;;5061476;28;20488;-58
2023/07/14 11:43:02;;;;;;;4.70;1.30;;;;;;;;;;5067485;28;20024;-58
2023/07/14 11:45:27;;;;;;;;;;;;;;;;;;5066781;28;20404;-61
2023/07/14 11:47:55;;;;;;;3.38;1.20;;;;;;;;;;5061534;28;19931;-60
2023/07/14 11:50:22;;;;;;;3.90;1.40;;;;;;;;;;5070693;28;20024;-61
2023/07/14 11:52:59;;;;;;;4.68;1.33;;;;;;;;;;5069107;28;20024;-59
2023/07/14 11:55:27;;;;;;;4.18;1.30;;;;;;;;;;5064644;28;20012;-60
2023/07/14 11:58:04;;;;;;;5.00;1.25;;;;;;;;;;5069778;28;20537;-60
2023/07/14 12:00:34;;;;;;;4.53;1.30;;;;;;;;;;5066276;28;20467;-59
2023/07/14 12:03:01;;;;;;;3.72;1.30;;;;;;;;;;5070008;28;20013;-60
2023/07/14 12:05:26;;;;;;;4.75;1.60;;;;;;;;;;5067724;28;20077;-59
2023/07/14 12:07:58;;;;;;;6.15;1.38;;;;;;;;;;5062430;28;20025;-60
2023/07/14 12:10:43;;;;;;;6.03;1.40;;;;;;;;;;5068462;28;20016;-60
2023/07/14 12:13:26;;;;;;;4.93;1.67;;;;;;;;;;5057255;28;20029;-60
2023/07/14 12:15:54;;;;;;;3.90;1.48;;;;;;;;;;5067669;28;20028;-59
2023/07/14 12:18:30;;;;;;;4.10;1.38;;;;;;;;;;5067554;28;20025;-59
2023/07/14 12:21:13;;;;;;;5.28;1.70;;;;;;;;;;5080767;28;20020;-59
2023/07/14 12:23:39;;;;;;;5.45;1.50;;;;;;;;;;5058625;28;20100;-60
2023/07/14 12:26:05;;;;;;;;;;;;;;;;;;5070945;28;20395;-60
2023/07/14 12:28:33;;;;;;;4.28;1.80;;;;;;;;;;5061625;28;20369;-60
2023/07/14 12:31:00;;;;;;;4.18;1.50;;;;;;;;;;5059291;28;20017;-60
2023/07/14 12:33:25;;;;;;;4.38;1.42;;;;;;;;;;5069629;28;20092;-60
2023/07/14 12:35:51;;;;;;;;;;;;;;;;;;5067629;28;20099;-60
2023/07/14 12:38:17;;;;;;;4.90;1.60;;;;;;;;;;5069911;28;19915;-60
2023/07/14 12:40:44;;;;;;;4.20;1.50;;;;;;;;;;5075680;28;20024;-60
2023/07/14 12:43:25;;;;;;;3.42;1.48;;;;;;;;;;5071514;28;20597;-61
2023/07/14 12:45:50;;;;;;;4.22;1.50;;;;;;;;;;5057708;28;20062;-60
2023/07/14 12:48:15;;;;;;;;;;;;;;;;;;5059133;28;20024;-59
2023/07/14 12:50:40;;;;;;;6.07;1.40;;;;;;;;;;5058275;28;19920;-59
2023/07/14 12:53:10;;;;;;;4.33;1.50;;;;;;;;;;5064360;28;20112;-61
2023/07/14 12:55:35;;;;;;;4.00;1.63;;;;;;;;;;5070125;28;21040;-60
2023/07/14 12:58:00;;;;;;;;;;;;;;;;;;5066170;28;20111;-59
2023/07/14 13:00:25;;;;;;;4.75;1.60;;;;;;;;;;5072029;28;19905;-61
2023/07/14 13:02:50;;;;;;;;;;;;;;;;;;5059954;28;20484;-60
2023/07/14 13:05:16;;;;;;;4.95;1.70;;;;;;;;;;5074319;28;19919;-61
2023/07/14 13:07:41;;;;;;;;;;;;;;;;;;5073511;28;20020;-59
2023/07/14 13:10:15;;;;;;;4.65;1.67;;;;;;;;;;5066650;28;19908;-60
2023/07/14 13:12:40;;;;;;;4.82;1.58;;;;;;;;;;5067916;28;20032;-60
2023/07/14 13:15:06;;;;;;;;;;;;;;;;;;5055707;28;20025;-59
2023/07/14 13:17:31;;;;;;;6.68;1.77;;;;;;;;;;5053351;28;19924;-59
2023/07/14 13:19:56;;;;;;;;;;;;;;;;;;5062909;28;20025;-59
2023/07/14 13:22:23;;;;;;;3.58;1.58;;;;;;;;;;5066658;28;19912;-60
2023/07/14 13:25:05;;;;;;;5.47;1.83;;;;;;;;;;5067068;28;20048;-59
2023/07/14 13:27:33;;;;;;;4.10;1.70;;;;;;;;;;5072159;28;20032;-59
2023/07/14 13:30:10;;;;;;;6.35;1.70;;;;;;;;;;5065857;28;20032;-60
2023/07/14 13:32:36;;;;;;;4.70;1.65;;;;;;;;;;5058737;28;20024;-59
2023/07/14 13:35:05;;;;;;;;;;;;;;;;;;5061101;28;20025;-58
2023/07/14 13:37:31;;;;;;;4.25;1.88;;;;;;;;;;5065764;28;20095;-59
2023/07/14 13:39:56;;;;;;;;;;;;;;;;;;5065768;28;20537;-62
2023/07/14 13:42:29;;;;;;;5.60;1.58;;;;;;;;;;5059047;28;20074;-60
2023/07/14 13:44:57;;;;;;;5.57;1.70;;;;;;;;;;5061608;28;20040;-60
2023/07/14 13:47:26;;;;;;;6.18;1.80;;;;;;;;;;5067764;28;20024;-60
2023/07/14 13:49:52;;;;;;;6.80;1.80;;;;;;;;;;5057077;28;20021;-60
2023/07/14 13:52:17;;;;;;;;;;;;;;;;;;5070248;28;20031;-60
2023/07/14 13:54:45;;;;;;;4.65;2.00;;;;;;;;;;5068125;28;19912;-60
2023/07/14 13:57:11;;;;;;;5.45;2.05;;;;;;;;;;5068317;28;20060;-60
2023/07/14 13:59:36;;;;;;;;;;;;;;;;;;5059114;28;20021;-61
2023/07/14 14:02:10;;;;;;;4.50;1.80;;;;;;;;;;5068133;28;19909;-60
2023/07/14 14:04:36;;;;;;;4.40;1.88;;;;;;;;;;5064259;28;20096;-60
2023/07/14 14:07:01;;;;;;;;;;;;;;;;;;5068813;28;20100;-60
2023/07/14 14:09:26;;;;;;;6.10;2.20;;;;;;;;;;5067690;28;20318;-59
2023/07/14 14:11:51;;;;;;;5.00;2.37;;;;;;;;;;5071301;28;20021;-61
2023/07/14 14:14:16;;;;;;;;;;;;;;;;;;5080440;28;20012;-61
2023/07/14 14:16:42;;;;;;;4.95;2.08;;;;;;;;;;5070122;28;20299;-58
2023/07/14 14:19:10;;;;;;;6.10;2.08;;;;;;;;;;5070415;28;20043;-61
2023/07/14 14:21:35;;;;;;;5.13;2.20;;;;;;;;;;5061006;28;20017;-60
2023/07/14 14:24:00;;;;;;;;;;;;;;;;;;5059762;28;20037;-60
2023/07/14 14:26:25;;;;;;;4.93;2.00;;;;;;;;;;5066351;28;19909;-61
2023/07/14 14:28:50;;;;;;;;;;;;;;;;;;5065093;28;20056;-59
2023/07/14 14:31:16;;;;;;;4.55;2.00;;;;;;;;;;5063292;28;20465;-60
2023/07/14 14:33:41;;;;;;;;;;;;;;;;;;5063215;28;20021;-61
2023/07/14 14:36:09;;;;;;;5.38;2.00;;;;;;;;;;5063830;28;19918;-59
2023/07/14 14:38:34;;;;;;;6.35;2.15;;;;;;;;;;5068389;28;20020;-61
2023/07/14 14:40:59;;;;;;;;;;;;;;;;;;5068657;28;20210;-60
2023/07/14 14:43:25;;;;;;;5.85;2.83;;;;;;;;;;5071680;28;19908;-59
2023/07/14 14:45:52;;;;;;;7.10;3.13;;;;;;;;;;5065258;28;20509;-61
2023/07/14 14:48:19;;;;;;;6.63;3.50;;;;;;;;;;5071489;28;20035;-61
2023/07/14 14:50:45;;;;;;;6.72;2.17;;;;;;;;;;5063648;28;20488;-60
2023/07/14 14:53:11;;;;;;;;;;;;;;;;;;5054641;28;20487;-60